createdAt,value
2023-01-08T00:08:50.153Z,67.38
2023-01-08T00:18:53.748Z,67.37
2023-01-08T00:28:57.663Z,67.50
2023-01-08T00:39:02.421Z,67.58
2023-01-08T00:49:06.078Z,67.47
2023-01-08T00:59:09.816Z,67.42
2023-01-08T01:09:13.442Z,67.49
2023-01-08T01:19:17.957Z,67.17
2023-01-08T01:29:21.557Z,67.53
2023-01-08T01:39:25.396Z,67.45
2023-01-08T01:49:31.209Z,67.55
2023-01-08T01:59:34.834Z,67.64
2023-01-08T02:09:48.054Z,67.88
2023-01-08T02:20:00.532Z,67.88
2023-01-08T02:30:06.356Z,68.03
2023-01-08T02:40:25.317Z,68.12
2023-01-08T02:50:38.199Z,67.97
2023-01-08T03:00:45.771Z,67.95
2023-01-08T03:10:55.886Z,67.75
2023-01-08T03:21:02.291Z,67.70
2023-01-08T03:31:07.230Z,67.90
2023-01-08T03:41:15.230Z,68.10
2023-01-08T03:51:19.121Z,67.83
2023-01-08T04:01:22.796Z,67.81
2023-01-08T04:11:26.644Z,67.80
2023-01-08T04:21:30.104Z,67.84
2023-01-08T04:31:33.574Z,68.01
2023-01-08T04:41:37.230Z,67.83
2023-01-08T04:51:40.872Z,68.02
2023-01-08T05:01:44.576Z,67.99
2023-01-08T05:11:48.370Z,67.96
2023-01-08T05:21:51.982Z,67.81
2023-01-08T05:31:55.514Z,67.90
2023-01-08T05:42:00.779Z,67.73
2023-01-08T05:52:04.686Z,67.97
2023-01-08T06:02:09.368Z,67.97
2023-01-08T06:12:12.960Z,67.84
2023-01-08T06:22:16.795Z,67.97
2023-01-08T06:32:20.438Z,67.95
2023-01-08T06:42:24.029Z,68.16
2023-01-08T06:52:27.908Z,68.15
2023-01-08T07:02:31.822Z,68.18
2023-01-08T07:12:35.659Z,68.13
2023-01-08T07:22:39.214Z,68.20
2023-01-08T07:32:42.780Z,68.09
2023-01-08T07:42:46.431Z,67.98
2023-01-08T07:52:50.014Z,67.65
2023-01-08T08:02:53.633Z,67.41
2023-01-08T08:12:57.339Z,66.98
2023-01-08T08:23:14.095Z,67.23
2023-01-08T08:33:17.643Z,66.98
2023-01-08T08:43:21.611Z,67.08
2023-01-08T08:54:19.689Z,66.99
2023-01-08T09:04:23.201Z,66.76
2023-01-08T09:14:26.779Z,66.90
2023-01-08T09:24:32.519Z,67.67
2023-01-08T09:34:39.694Z,68.44
2023-01-08T09:44:45.731Z,69.21
2023-01-08T09:54:53.181Z,69.67
2023-01-08T10:05:01.457Z,70.42
2023-01-08T10:15:13.961Z,70.75
2023-01-08T10:25:20.503Z,70.94
2023-01-08T10:35:34.943Z,71.38
2023-01-08T10:45:38.704Z,71.24
2023-01-08T10:55:42.302Z,71.61
2023-01-08T11:05:46.648Z,71.41
2023-01-08T11:16:07.006Z,71.89
2023-01-08T11:26:16.099Z,72.32
2023-01-08T11:36:27.130Z,72.22
2023-01-08T11:47:10.287Z,71.76
2023-01-08T11:57:29.382Z,70.54
2023-01-08T12:07:58.205Z,69.56
2023-01-08T12:18:22.823Z,68.75
2023-01-08T12:28:51.289Z,68.02
2023-01-08T12:39:02.541Z,67.52
2023-01-08T12:49:11.270Z,67.65
2023-01-08T12:59:46.634Z,67.77
2023-01-08T13:10:22.580Z,67.67
2023-01-08T13:20:32.239Z,67.74
2023-01-08T13:30:43.603Z,67.58
2023-01-08T13:40:50.138Z,67.61
2023-01-08T13:50:56.954Z,67.41
2023-01-08T14:01:03.598Z,67.15
2023-01-08T14:11:10.998Z,67.02
2023-01-08T14:21:16.021Z,67.05
2023-01-08T14:31:27.210Z,66.62
2023-01-08T14:41:58.308Z,66.67
2023-01-08T14:52:03.613Z,66.34
2023-01-08T15:02:22.307Z,66.13
2023-01-08T15:12:29.239Z,66.14
2023-01-08T15:22:36.754Z,65.95
2023-01-08T15:32:40.908Z,65.76
2023-01-08T15:43:04.520Z,65.78
2023-01-08T15:53:19.341Z,65.39
2023-01-08T16:03:25.750Z,65.57
2023-01-08T16:13:31.073Z,65.34
2023-01-08T16:23:38.719Z,65.40
2023-01-08T16:33:45.148Z,65.66
2023-01-08T16:43:50.319Z,65.81
2023-01-08T16:53:54.053Z,65.94
2023-01-08T17:04:00.290Z,66.35
2023-01-08T17:14:04.967Z,66.32
2023-01-08T17:24:10.077Z,66.44
2023-01-08T17:34:16.302Z,66.57
2023-01-08T17:44:20.038Z,66.93
2023-01-08T17:54:24.634Z,66.93
2023-01-08T18:04:28.487Z,67.03
2023-01-08T18:14:37.788Z,66.97
2023-01-08T18:24:42.340Z,67.05
2023-01-08T18:34:46.173Z,67.35
2023-01-08T18:44:52.816Z,67.53
2023-01-08T18:54:58.034Z,67.72
2023-01-08T19:05:01.995Z,67.64
2023-01-08T19:15:08.238Z,67.59
2023-01-08T19:25:15.139Z,68.01
2023-01-08T19:35:18.934Z,67.70
2023-01-08T19:45:24.386Z,67.80
2023-01-08T19:55:28.710Z,67.90
2023-01-08T20:05:34.419Z,67.68
2023-01-08T20:15:40.252Z,67.41
2023-01-08T20:25:43.834Z,67.42
2023-01-08T20:35:47.493Z,67.76
2023-01-08T20:45:51.363Z,67.60
2023-01-08T20:56:02.337Z,67.43
2023-01-08T21:06:13.560Z,67.56
2023-01-08T21:16:22.805Z,67.52
2023-01-08T21:26:27.255Z,67.53
2023-01-08T21:36:32.129Z,67.68
2023-01-08T21:46:37.934Z,67.29
2023-01-08T21:56:41.593Z,67.54
2023-01-08T22:06:47.248Z,67.07
2023-01-08T22:16:50.856Z,67.14
2023-01-08T22:26:54.631Z,67.29
2023-01-08T22:37:00.109Z,66.93
2023-01-08T22:47:06.391Z,66.82
2023-01-08T22:57:10.512Z,66.78
2023-01-08T23:07:15.998Z,66.52
2023-01-08T23:17:19.639Z,66.48
2023-01-08T23:27:23.257Z,66.35
2023-01-08T23:37:26.786Z,66.55
2023-01-08T23:47:30.738Z,66.55
2023-01-08T23:57:34.372Z,66.80
